Latest Weather Observations for Ferny Creek

IDV60801

Issued at 8:12 pm EST Wednesday 12 August 2020 (issued every 10 minutes, with the page automatically refreshed every 10 minutes)

About weather observations | Map of weather stations | Latest weather observations for VIC | Other Formats
Station Details ID: 086266 Name: FERNY CREEK Lat: -37.87 Lon: 145.35 Height: 512.9 m
Data from the previous 72 hours. | See also: Recent months at Ferny Creek
Date/Time
EST
Temp
°C
App
Temp
°C
Dew
Point
°C
Rel
Hum
%
Delta-T
°C
Wind Press
QNH
hPa
Press
MSL
hPa
Rain since
9am
mm
Dir  Spd
km/h
Gust
km/h
Spd
kts
Gust
kts
12/08:00pm 9.3 7.4 7.4 88 0.9 NNW 7 22 4 12 1009.3 1009.8 0.0
12/07:30pm 9.1 7.4 7.4 89 0.8 N 6 19 3 10 1009.1 1009.6 0.0
12/07:00pm 9.1 7.4 7.4 89 0.8 N 6 15 3 8 1008.8 1009.3 0.0
12/06:30pm 9.0 7.0 7.3 89 0.8 N 7 13 4 7 1008.3 1008.9 0.0
12/06:00pm 9.2 6.9 7.3 88 0.9 N 9 22 5 12 1008.1 1008.7 0.0
12/05:30pm 9.4 7.5 7.5 88 0.9 N 7 20 4 11 1007.9 1008.5 0.0
12/05:00pm 10.0 7.7 7.4 84 1.3 N 9 20 5 11 1007.7 1008.2 0.0
12/04:30pm 9.7 7.9 7.8 88 0.9 N 7 17 4 9 1007.9 1008.5 0.0
12/04:00pm 9.9 8.0 7.5 85 1.2 NNE 7 20 4 11 1007.7 1008.2 0.0
12/03:30pm 10.5 8.6 7.6 82 1.4 N 7 17 4 9 1007.8 1008.3 0.0
12/03:00pm 11.6 9.4 7.9 78 1.9 N 9 17 5 9 1007.7 1008.2 0.0
12/02:30pm 11.1 8.8 7.4 78 1.8 N 9 20 5 11 1007.8 1008.3 0.0
12/02:00pm 10.6 8.2 7.1 79 1.7 N 9 19 5 10 1008.1 1008.7 0.0
12/01:30pm 10.3 8.1 7.7 84 1.3 NNE 9 19 5 10 1008.0 1008.6 0.0
12/01:00pm 10.2 8.0 8.0 86 1.1 N 9 19 5 10 1008.6 1009.1 0.0
12/12:30pm 9.8 7.1 7.4 85 1.2 NNE 11 22 6 12 1008.8 1009.3 0.0
12/12:00pm 10.1 7.5 7.7 85 1.2 NNE 11 26 6 14 1009.3 1009.8 0.0
12/11:30am 9.3 6.7 7.7 90 0.8 N 11 22 6 12 1009.7 1010.3 0.0
12/11:00am 9.3 7.1 7.9 91 0.7 NNE 9 24 5 13 1009.9 1010.5 0.0
12/10:30am 9.3 6.3 7.6 89 0.8 NNE 13 32 7 17 1010.1 1010.7 0.0
12/10:00am 8.6 5.9 7.4 92 0.6 NNE 11 24 6 13 1010.1 1010.7 0.0
12/09:30am 8.3 5.2 7.2 93 0.5 NNE 13 26 7 14 1010.5 1011.1 0.0
12/09:00am 7.9 5.2 7.5 97 0.2 NNE 11 28 6 15 1010.8 1011.3 1.8
12/08:30am 7.7 5.0 7.4 98 0.1 NNE 11 26 6 14 1010.9 1011.4 1.8
12/08:00am 7.5 4.8 7.2 98 0.1 N 11 33 6 18 1010.9 1011.4 1.8
12/07:30am 7.5 4.7 7.1 97 0.2 NNE 11 22 6 12 1011.0 1011.5 1.8
12/07:00am 7.4 5.0 7.0 97 0.2 NNE 9 24 5 13 1010.9 1011.4 1.8
12/06:30am 7.4 4.6 6.8 96 0.3 NNE 11 24 6 13 1010.8 1011.3 1.6
12/06:00am 7.5 5.1 6.8 95 0.3 NNE 9 20 5 11 1011.0 1011.5 0.8
12/05:30am 7.6 4.3 6.5 93 0.5 NNE 13 32 7 17 1011.0 1011.5 0.4
12/05:00am 7.8 4.4 6.1 89 0.8 NNE 13 26 7 14 1010.8 1011.3 0.2
12/04:30am 8.3 4.7 5.2 81 1.4 NNE 13 33 7 18 1010.4 1011.0 0.0
12/04:00am 8.5 5.3 5.3 80 1.5 NNE 11 28 6 15 1010.8 1011.3 0.0
12/03:30am 8.3 4.7 5.2 81 1.4 NNE 13 24 7 13 1010.9 1011.4 0.0
12/03:00am 8.4 5.1 4.6 77 1.7 NNE 11 26 6 14 1011.2 1011.7 0.0
12/02:30am 8.0 4.3 4.4 78 1.6 NE 13 26 7 14 1011.5 1012.1 0.0
12/02:00am 8.4 4.9 3.7 72 2.1 NNE 11 24 6 13 1012.0 1012.6 0.0
12/01:30am 8.7 5.2 3.7 71 2.2 NNE 11 20 6 11 1012.4 1013.0 0.0
12/01:00am 9.0 5.6 3.8 70 2.3 NNE 11 24 6 13 1012.7 1013.2 0.0
12/12:30am 9.0 5.9 3.6 69 2.4 NNE 9 24 5 13 1012.8 1013.3 0.0
12/12:00am 9.3 5.2 4.1 70 2.4 NNE 15 32 8 17 1013.0 1013.6 0.0
 
Date/Time
EST
Temp
°C
App
Temp
°C
Dew
Point
°C
Rel
Hum
%
Delta-T
°C
Wind Press
QNH
hPa
Press
MSL
hPa
Rain since
9am
mm
Dir  Spd
km/h
Gust
km/h
Spd
kts
Gust
kts
11/11:30pm 9.0 5.1 3.6 69 2.4 NNE 13 43 7 23 1013.0 1013.6 0.0
11/11:00pm 8.8 4.9 3.2 68 2.5 N 13 28 7 15 1013.2 1013.8 0.0
11/10:30pm 8.7 5.4 2.7 66 2.6 N 9 24 5 13 1013.5 1014.1 0.0
11/10:00pm 8.6 4.9 2.6 66 2.6 N 11 24 6 13 1013.5 1014.1 0.0
11/09:30pm 8.6 4.9 2.4 65 2.7 NNE 11 26 6 14 1013.5 1014.1 0.0
11/09:00pm 8.4 4.3 2.0 64 2.7 NE 13 26 7 14 1013.7 1014.3 0.0
11/08:30pm 8.4 4.1 1.1 60 3.1 ENE 13 24 7 13 1013.7 1014.3 0.0
11/08:00pm 8.7 4.7 0.7 57 3.3 NNE 11 24 6 13 1014.0 1014.6 0.0
11/07:30pm 8.9 5.8 -0.1 53 3.7 NNE 6 15 3 8 1014.1 1014.7 0.0
11/07:00pm 9.0 5.8 -0.3 52 3.8 N 6 13 3 7 1014.0 1014.6 0.0
11/06:30pm 8.8 4.4 0.3 55 3.5 NE 13 24 7 13 1013.7 1014.3 0.0
11/06:00pm 8.5 4.0 2.1 64 2.7 NE 15 24 8 13 1013.4 1014.0 0.0
11/05:30pm 8.6 4.3 3.0 68 2.5 NE 15 26 8 14 1013.7 1014.3 0.0
11/05:00pm 8.9 5.7 3.3 68 2.5 NNE 9 15 5 8 1014.2 1014.8 0.0
11/04:30pm 9.3 6.6 3.5 67 2.6 N 7 17 4 9 1014.3 1014.9 0.0
11/04:00pm 10.4 7.2 3.2 61 3.2 N 9 20 5 11 1014.5 1015.2 0.0
11/03:30pm 10.0 6.9 3.5 64 2.9 NNE 9 30 5 16 1015.0 1015.6 0.0
11/03:00pm 10.9 7.5 3.9 62 3.2 NNE 11 22 6 12 1015.1 1015.7 0.0
11/02:30pm 11.5 8.2 4.3 61 3.3 NNE 11 26 6 14 1015.3 1015.9 0.0
11/02:00pm 10.5 7.1 3.8 63 3.0 NNE 11 26 6 14 1015.7 1016.3 0.0
11/01:30pm 10.6 7.7 4.5 66 2.8 NNE 9 20 5 11 1015.9 1016.5 0.0
11/01:00pm 9.6 6.4 2.9 63 3.0 N 9 24 5 13 1016.3 1017.0 0.0
11/12:30pm 10.0 6.8 3.3 63 3.0 N 9 20 5 11 1016.9 1017.5 0.0
11/12:00pm 9.8 7.0 3.3 64 2.9 N 7 13 4 7 1017.4 1018.0 0.0
11/11:30am 10.4 7.1 2.5 58 3.5 N 9 20 5 11 1017.6 1018.2 0.0
11/11:00am 10.2 6.5 2.6 59 3.3 N 11 32 6 17 1017.6 1018.2 0.0
11/10:30am 9.5 6.2 2.6 62 3.0 NNE 9 22 5 12 1017.9 1018.6 0.0
11/10:00am 8.6 5.3 2.2 64 2.8 N 9 20 5 11 1018.1 1018.8 0.0
11/09:30am 8.6 4.9 2.2 64 2.8 NNE 11 26 6 14 1017.8 1018.5 0.0
11/09:00am 8.7 5.0 2.5 65 2.7 N 11 19 6 10 1018.0 1018.7 0.0
11/08:30am 7.8 4.3 1.2 63 2.8 N 9 24 5 13 1018.3 1019.0 0.0
11/08:00am 7.6 4.5 1.2 64 2.7 N 7 19 4 10 1018.3 1019.0 0.0
11/07:30am 7.9 4.8 1.1 62 2.8 N 7 17 4 9 1018.1 1018.8 0.0
11/07:00am 7.4 4.2 0.6 62 2.8 N 7 17 4 9 1017.6 1018.2 0.0
11/06:30am 7.6 4.0 0.8 62 2.8 NNE 9 20 5 11 1017.7 1018.3 0.0
11/06:00am 7.4 3.9 1.5 66 2.5 N 9 17 5 9 1017.8 1018.5 0.0
11/05:30am 7.4 4.3 1.5 66 2.5 N 7 22 4 12 1017.9 1018.6 0.0
11/05:00am 7.4 4.4 1.9 68 2.3 N 7 19 4 10 1018.4 1019.1 0.0
11/04:30am 7.6 4.7 1.7 66 2.5 N 6 11 3 6 1018.6 1019.3 0.0
11/04:00am 7.5 4.5 1.8 67 2.4 N 7 17 4 9 1018.5 1019.2 0.0
11/03:30am 8.0 4.9 1.4 63 2.8 N 7 19 4 10 1018.6 1019.3 0.0
11/03:00am 8.0 4.8 0.7 60 3.0 N 7 22 4 12 1018.9 1019.5 0.0
11/02:30am 7.5 4.4 0.3 60 2.9 N 6 15 3 8 1019.1 1019.7 0.0
11/02:00am 8.0 5.0 0.5 59 3.1 N 6 13 3 7 1018.9 1019.5 0.0
11/01:30am 8.4 5.2 0.9 59 3.1 N 7 19 4 10 1018.6 1019.3 0.0
11/01:00am 8.0 5.1 1.4 63 2.8 N 6 13 3 7 1018.9 1019.5 0.0
11/12:30am 8.0 5.1 1.4 63 2.8 N 6 13 3 7 1019.1 1019.7 0.0
11/12:00am 8.3 5.3 1.7 63 2.8 N 7 13 4 7 1019.4 1020.0 0.0
 
Date/Time
EST
Temp
°C
App
Temp
°C
Dew
Point
°C
Rel
Hum
%
Delta-T
°C
Wind Press
QNH
hPa
Press
MSL
hPa
Rain since
9am
mm
Dir  Spd
km/h
Gust
km/h
Spd
kts
Gust
kts
10/11:30pm 8.5 6.2 2.7 67 2.5 N 4 9 2 5 1019.5 1020.2 0.0
10/11:00pm 8.4 6.1 2.8 68 2.4 N 4 9 2 5 1019.7 1020.4 0.0
10/10:30pm 8.6 6.5 3.8 72 2.1 NNW 4 7 2 4 1020.1 1020.8 0.0
10/10:00pm 8.4 6.4 4.4 76 1.8 NNW 4 7 2 4 1019.9 1020.6 0.0
10/09:30pm 8.5 6.7 5.4 81 1.4 NNW 4 9 2 5 1019.9 1020.6 0.0
10/09:00pm 7.8 6.2 6.3 90 0.7 NW 4 9 2 5 1019.9 1020.6 0.0
10/08:30pm 6.5 5.6 5.9 96 0.3 CALM 0 2 0 1 1019.8 1020.5 0.0
10/08:00pm 6.7 5.4 5.8 94 0.4 W 2 4 1 2 1019.8 1020.5 0.0
10/07:30pm 7.2 6.4 6.3 94 0.4 CALM 0 0 0 0 1019.5 1020.2 0.0
10/07:00pm 7.4 6.6 6.5 94 0.4 CALM 0 0 0 0 1019.2 1019.8 0.0
10/06:30pm 7.5 6.6 6.1 91 0.7 CALM 0 0 0 0 1019.0 1019.6 0.0
10/06:00pm 7.9 6.9 5.7 86 1.0 CALM 0 0 0 0 1018.9 1019.5 0.0
10/05:30pm 9.2 8.0 6.5 83 1.3 WNW 2 6 1 3 1019.0 1019.6 0.0
10/05:00pm 9.6 8.6 5.8 77 1.8 CALM 0 4 0 2 1019.2 1019.8 0.0
10/04:30pm 11.0 9.3 6.0 71 2.4 NW 4 7 2 4 1019.4 1020.0 0.0
10/04:00pm 12.4 11.3 6.7 68 2.8 W 2 4 1 2 1019.6 1020.3 0.0
10/03:30pm 12.2 11.1 6.7 69 2.7 SW 2 4 1 2 1019.5 1020.2 0.0
10/03:00pm 11.8 10.3 6.7 71 2.5 SW 4 7 2 4 1019.8 1020.5 0.0
10/02:30pm 11.5 10.4 7.0 74 2.2 SSW 2 6 1 3 1020.0 1020.7 0.0
10/02:00pm 11.7 9.7 4.2 60 3.5 NE 4 9 2 5 1020.1 1020.8 0.0
10/01:30pm 11.1 9.6 6.8 75 2.1 WSW 4 6 2 3 1020.3 1021.0 0.0
10/01:00pm 11.6 9.5 4.1 60 3.5 E 4 7 2 4 1020.6 1021.3 0.0
10/12:30pm 11.5 9.6 2.8 55 3.9 ESE 2 7 1 4 1021.1 1021.7 0.0
10/12:00pm 11.6 9.4 3.6 58 3.6 ESE 4 6 2 3 1021.6 1022.3 0.0
10/11:30am 11.8 9.8 4.3 60 3.5 ENE 4 9 2 5 1021.9 1022.6 0.0
10/11:00am 10.3 7.8 3.8 64 2.9 ENE 6 9 3 5 1021.9 1022.6 0.0
10/10:30am 9.7 7.4 4.7 71 2.3 ENE 6 11 3 6 1022.1 1022.8 0.0
10/10:00am 8.9 6.6 5.6 80 1.5 E 7 13 4 7 1022.1 1022.8 0.0
10/09:30am 8.2 6.1 8.2 100 0.0 E 9 15 5 8 1022.2 1022.9 0.0
10/09:00am 6.3 3.4 6.3 100 0.0 E 11 17 6 9 1022.1 1022.8 0.0
10/08:30am 6.2 3.6 6.2 100 0.0 ESE 9 17 5 9 1022.0 1022.7 0.0
10/08:00am 5.7 3.0 5.7 100 0.0 E 9 15 5 8 1021.9 1022.6 0.0
10/07:30am 5.6 3.3 5.6 100 0.0 E 7 13 4 7 1021.7 1022.4 0.0
10/07:00am 5.6 3.3 5.6 100 0.0 E 7 15 4 8 1021.4 1022.1 0.0
10/06:30am 5.6 2.9 5.6 100 0.0 ESE 9 15 5 8 1021.4 1022.1 0.0
10/06:00am 5.7 3.0 5.7 100 0.0 E 9 17 5 9 1021.1 1021.7 0.0
10/05:30am 5.5 2.8 5.5 100 0.0 ESE 9 13 5 7 1021.1 1021.7 0.0
10/05:00am 5.5 3.2 5.5 100 0.0 ESE 7 13 4 7 1021.1 1021.7 0.0
10/04:30am 5.7 3.6 5.7 100 0.0 ESE 6 11 3 6 1021.2 1021.9 0.0
10/04:00am 5.3 3.1 5.3 100 0.0 E 6 15 3 8 1020.6 1021.3 0.0
10/03:30am 5.6 2.9 5.6 100 0.0 E 9 13 5 7 1020.5 1021.2 0.0
10/03:00am 5.9 2.9 5.9 100 0.0 E 11 22 6 12 1020.4 1021.1 0.0
10/02:30am 5.9 2.5 5.9 100 0.0 ESE 13 28 7 15 1020.6 1021.3 0.0
10/02:00am 6.0 1.9 6.0 100 0.0 E 17 24 9 13 1020.4 1021.1 0.0
10/01:30am 6.0 2.6 5.9 99 0.0 ESE 13 26 7 14 1020.7 1021.4 0.0
10/01:00am 5.9 2.8 5.6 98 0.1 ESE 11 22 6 12 1020.6 1021.3 0.0
10/12:30am 5.9 2.0 5.5 97 0.2 ESE 15 20 8 11 1020.4 1021.1 0.0
10/12:00am 6.0 2.1 5.3 95 0.3 E 15 26 8 14 1020.2 1020.9 0.0
 
Date/Time
EST
Temp
°C
App
Temp
°C
Dew
Point
°C
Rel
Hum
%
Delta-T
°C
Wind Press
QNH
hPa
Press
MSL
hPa
Rain since
9am
mm
Dir  Spd
km/h
Gust
km/h
Spd
kts
Gust
kts
09/11:30pm 6.2 2.2 4.8 91 0.6 ESE 15 24 8 13 1020.4 1021.1 0.0
09/11:00pm 6.2 2.2 5.0 92 0.5 E 15 24 8 13 1020.5 1021.2 0.0
09/10:30pm 6.4 2.0 5.0 91 0.6 E 17 32 9 17 1020.4 1021.1 0.0
09/10:00pm 6.5 1.9 5.8 95 0.3 ESE 19 32 10 17 1020.6 1021.3 0.0
09/09:30pm 6.6 1.4 5.7 94 0.4 ESE 22 35 12 19 1020.5 1021.2 0.0
09/09:00pm 6.9 2.7 5.8 93 0.5 ESE 17 30 9 16 1020.5 1021.2 0.0
09/08:30pm 7.2 3.4 5.8 91 0.6 ESE 15 24 8 13 1020.7 1021.4 0.0

Other formats

Comma delimited format used in spreadsheet applications
http://www.bom.gov.au/fwo/IDV60801/IDV60801.94872.axf

JavaScript Object Notation format (JSON) in row-major order
http://www.bom.gov.au/fwo/IDV60801/IDV60801.94872.json

Data quality

Most of these data are generated automatically and are frequently updated. Quality checks on data are not normally performed. It is possible for incorrect values to appear. Refer to information at About Latest Weather Observations and please check the disclaimer before using these data.